Time;durP1;ratioP1;P1;durP2;ratioP2;P2;SDS_P1;SDS_P2;PMS_P1;PMS_P2;Temp;Humidity;BMP_temperature;BMP_pressure;BME280_temperature;BME280_humidity;BME280_pressure;Samples;Min_cycle;Max_cycle;Signal;HPM_P1;HPM_P2
2023/09/12 00:00:05;;;;;;;8.85;4.97;;;;;;;;;;5067174;28;20028;-81
2023/09/12 00:02:31;;;;;;;9.57;5.43;;;;;;;;;;5079858;28;20036;-78
2023/09/12 00:04:57;;;;;;;7.28;5.07;;;;;;;;;;5082672;28;20047;-80
2023/09/12 00:07:25;;;;;;;7.47;5.05;;;;;;;;;;5083128;28;20058;-81
2023/09/12 00:09:51;;;;;;;8.98;4.57;;;;;;;;;;5083572;28;20111;-80
2023/09/12 00:12:17;;;;;;;9.73;5.57;;;;;;;;;;5082846;28;20032;-82
2023/09/12 00:14:45;;;;;;;11.98;5.75;;;;;;;;;;5064346;28;20535;-79
2023/09/12 00:17:11;;;;;;;10.98;6.25;;;;;;;;;;5065903;28;20036;-80
2023/09/12 00:19:40;;;;;;;10.30;6.45;;;;;;;;;;5083784;28;20092;-78
2023/09/12 00:22:05;;;;;;;15.93;6.63;;;;;;;;;;5064220;28;20631;-82
2023/09/12 00:24:31;;;;;;;11.63;7.10;;;;;;;;;;5065052;28;20032;-78
2023/09/12 00:26:57;;;;;;;12.38;6.63;;;;;;;;;;5065840;28;20603;-80
2023/09/12 00:29:23;;;;;;;12.75;7.57;;;;;;;;;;5060935;28;20031;-82
2023/09/12 00:31:52;;;;;;;12.73;7.40;;;;;;;;;;5083354;28;20110;-78
2023/09/12 00:34:18;;;;;;;12.63;8.10;;;;;;;;;;5065852;28;20023;-81
2023/09/12 00:36:44;;;;;;;11.32;7.97;;;;;;;;;;5060645;28;20043;-77
2023/09/12 00:39:10;;;;;;;15.20;7.45;;;;;;;;;;5083455;28;20520;-80
2023/09/12 00:41:36;;;;;;;12.55;8.43;;;;;;;;;;5083375;28;20855;-82
2023/09/12 00:44:02;;;;;;;11.10;7.18;;;;;;;;;;5083541;28;20051;-76
2023/09/12 00:46:28;;;;;;;13.07;7.95;;;;;;;;;;5063563;28;20039;-76
2023/09/12 00:48:59;;;;;;;17.13;8.30;;;;;;;;;;5079498;28;20035;-81
2023/09/12 00:51:26;;;;;;;13.32;8.48;;;;;;;;;;5066637;28;20065;-81
2023/09/12 00:53:53;;;;;;;13.88;8.30;;;;;;;;;;5083511;28;20119;-79
2023/09/12 00:56:19;;;;;;;13.77;8.98;;;;;;;;;;5065229;28;21031;-81
2023/09/12 00:58:46;;;;;;;12.68;8.73;;;;;;;;;;5082975;28;20032;-80
2023/09/12 01:01:12;;;;;;;16.15;9.40;;;;;;;;;;5065761;28;20363;-80
2023/09/12 01:03:38;;;;;;;14.98;9.25;;;;;;;;;;5067107;28;20090;-81
2023/09/12 01:06:05;;;;;;;16.00;9.32;;;;;;;;;;5069314;28;20445;-80
2023/09/12 01:08:31;;;;;;;17.65;10.88;;;;;;;;;;5084450;28;20101;-82
2023/09/12 01:10:58;;;;;;;18.52;10.43;;;;;;;;;;5083072;28;20028;-79
2023/09/12 01:13:26;;;;;;;15.63;9.85;;;;;;;;;;5063929;28;20032;-80
2023/09/12 01:15:52;;;;;;;14.93;9.98;;;;;;;;;;5061725;28;20032;-81
2023/09/12 01:18:18;;;;;;;14.25;9.52;;;;;;;;;;5083429;28;20031;-80
2023/09/12 01:20:52;;;;;;;16.60;10.30;;;;;;;;;;5067702;28;20059;-80
2023/09/12 01:23:33;;;;;;;23.65;9.98;;;;;;;;;;5082345;28;20061;-78
2023/09/12 01:26:02;;;;;;;14.80;9.30;;;;;;;;;;5081500;28;20036;-79
2023/09/12 01:28:34;;;;;;;14.02;9.27;;;;;;;;;;5081143;28;20024;-79
2023/09/12 01:31:02;;;;;;;15.32;9.82;;;;;;;;;;5081891;28;20147;-80
2023/09/12 01:33:28;;;;;;;15.25;9.43;;;;;;;;;;5081671;28;20029;-79
2023/09/12 01:35:54;;;;;;;16.17;10.60;;;;;;;;;;5066323;28;20720;-78
2023/09/12 01:38:21;;;;;;;25.20;10.52;;;;;;;;;;5086205;28;20109;-82
2023/09/12 01:40:50;;;;;;;20.13;10.88;;;;;;;;;;5084626;28;20075;-79
2023/09/12 01:43:18;;;;;;;20.85;11.70;;;;;;;;;;5084910;28;20051;-79
2023/09/12 01:45:46;;;;;;;15.85;10.77;;;;;;;;;;5083563;28;20036;-79
2023/09/12 01:48:12;;;;;;;18.02;12.00;;;;;;;;;;5085954;28;20141;-81
2023/09/12 01:50:38;;;;;;;19.08;11.90;;;;;;;;;;5064291;28;20093;-81
2023/09/12 01:53:07;;;;;;;25.23;13.07;;;;;;;;;;5084855;28;20460;-78
2023/09/12 01:55:34;;;;;;;19.92;13.82;;;;;;;;;;5068844;28;20955;-82
2023/09/12 01:58:02;;;;;;;21.77;13.70;;;;;;;;;;5087481;28;20047;-82
2023/09/12 02:00:30;;;;;;;21.48;14.10;;;;;;;;;;5066150;28;20036;-82
2023/09/12 02:02:56;;;;;;;20.60;13.10;;;;;;;;;;5086700;28;20814;-79
2023/09/12 02:05:22;;;;;;;26.23;15.07;;;;;;;;;;5067843;28;20036;-79
2023/09/12 02:07:49;;;;;;;26.40;15.63;;;;;;;;;;5068199;28;20038;-82
2023/09/12 02:10:15;;;;;;;25.90;13.82;;;;;;;;;;5065886;28;20077;-79
2023/09/12 02:12:42;;;;;;;24.05;15.57;;;;;;;;;;5086340;28;20029;-82
2023/09/12 02:15:08;;;;;;;23.17;15.27;;;;;;;;;;5082443;28;20032;-81
2023/09/12 02:17:38;;;;;;;25.70;15.45;;;;;;;;;;5085035;28;20043;-82
2023/09/12 02:20:05;;;;;;;22.80;15.85;;;;;;;;;;5068584;28;20145;-81
2023/09/12 02:22:31;;;;;;;24.42;16.02;;;;;;;;;;5068995;28;20116;-82
2023/09/12 02:24:57;;;;;;;25.20;15.35;;;;;;;;;;5068713;28;20144;-77
2023/09/12 02:27:23;;;;;;;25.42;15.82;;;;;;;;;;5086558;28;20032;-80
2023/09/12 02:29:49;;;;;;;25.92;16.40;;;;;;;;;;5063720;28;20119;-82
2023/09/12 02:32:15;;;;;;;30.70;15.68;;;;;;;;;;5062880;28;20032;-81
2023/09/12 02:34:41;;;;;;;24.63;16.75;;;;;;;;;;5084705;28;20035;-77
2023/09/12 02:37:07;;;;;;;28.98;16.90;;;;;;;;;;5082031;28;20032;-80
2023/09/12 02:39:33;;;;;;;25.60;15.73;;;;;;;;;;5084166;28;20467;-78
2023/09/12 02:41:59;;;;;;;27.15;16.38;;;;;;;;;;5062203;28;20043;-82
2023/09/12 02:44:25;;;;;;;28.60;16.75;;;;;;;;;;5085813;28;20036;-79
2023/09/12 02:46:51;;;;;;;23.50;15.77;;;;;;;;;;5065828;28;20839;-82
2023/09/12 02:49:17;;;;;;;26.00;15.82;;;;;;;;;;5086293;28;20039;-82
2023/09/12 02:51:43;;;;;;;25.48;15.75;;;;;;;;;;5086219;28;20368;-80
2023/09/12 02:54:09;;;;;;;26.92;15.90;;;;;;;;;;5086121;28;20081;-81
2023/09/12 02:56:35;;;;;;;25.05;15.65;;;;;;;;;;5083535;28;20043;-80
2023/09/12 02:59:01;;;;;;;23.10;15.40;;;;;;;;;;5066756;28;20073;-80
2023/09/12 03:01:28;;;;;;;23.42;16.15;;;;;;;;;;5071332;28;20525;-82
2023/09/12 03:03:54;;;;;;;27.88;15.63;;;;;;;;;;5085914;28;20038;-82
2023/09/12 03:06:20;;;;;;;23.90;16.25;;;;;;;;;;5085974;28;20151;-79
2023/09/12 03:08:47;;;;;;;21.70;15.10;;;;;;;;;;5068059;28;20548;-77
2023/09/12 03:11:12;;;;;;;29.38;15.68;;;;;;;;;;5063531;28;20047;-81
2023/09/12 03:13:40;;;;;;;27.42;15.02;;;;;;;;;;5084379;28;20062;-77
2023/09/12 03:16:08;;;;;;;25.83;15.77;;;;;;;;;;5066012;28;20028;-79
2023/09/12 03:18:36;;;;;;;28.15;16.58;;;;;;;;;;5067960;28;20122;-81
2023/09/12 03:21:02;;;;;;;20.67;14.00;;;;;;;;;;5065595;28;20039;-79
2023/09/12 03:23:28;;;;;;;19.70;12.95;;;;;;;;;;5068731;28;20036;-82
2023/09/12 03:25:57;;;;;;;21.85;13.15;;;;;;;;;;5085603;28;20245;-80
2023/09/12 03:28:23;;;;;;;18.83;11.77;;;;;;;;;;5062639;28;20119;-82
2023/09/12 03:30:49;;;;;;;26.05;13.50;;;;;;;;;;5065710;28;20111;-82
2023/09/12 03:33:15;;;;;;;22.35;11.55;;;;;;;;;;5066170;28;20475;-81
2023/09/12 03:35:43;;;;;;;21.52;12.23;;;;;;;;;;5085591;28;20082;-82
2023/09/12 03:38:10;;;;;;;18.08;10.98;;;;;;;;;;5070872;28;20028;-79
2023/09/12 03:40:36;;;;;;;18.08;11.15;;;;;;;;;;5065764;28;20074;-80
2023/09/12 03:43:02;;;;;;;17.00;10.65;;;;;;;;;;5064820;28;20695;-82
2023/09/12 03:45:28;;;;;;;17.10;10.82;;;;;;;;;;5066201;28;20126;-82
2023/09/12 03:47:54;;;;;;;17.55;11.55;;;;;;;;;;5062071;28;20107;-78
2023/09/12 03:50:20;;;;;;;13.95;10.38;;;;;;;;;;5068182;28;20062;-82
2023/09/12 03:52:46;;;;;;;13.23;8.85;;;;;;;;;;5087687;28;20031;-82
2023/09/12 03:55:12;;;;;;;16.85;9.82;;;;;;;;;;5084520;28;20036;-82
2023/09/12 03:57:40;;;;;;;13.27;9.30;;;;;;;;;;5068099;28;20032;-80
2023/09/12 04:00:07;;;;;;;17.42;8.95;;;;;;;;;;5067963;28;20036;-80
2023/09/12 04:02:33;;;;;;;13.23;7.93;;;;;;;;;;5082971;28;20099;-81
2023/09/12 04:04:59;;;;;;;13.73;7.70;;;;;;;;;;5080649;28;20028;-82
2023/09/12 04:07:25;;;;;;;10.80;7.65;;;;;;;;;;5066642;28;20028;-79
2023/09/12 04:09:54;;;;;;;12.10;6.97;;;;;;;;;;5066343;28;20016;-81
2023/09/12 04:12:20;;;;;;;13.20;6.78;;;;;;;;;;5064482;28;20028;-78
2023/09/12 04:14:46;;;;;;;10.57;6.40;;;;;;;;;;5084250;28;20101;-82
2023/09/12 04:17:14;;;;;;;10.18;6.20;;;;;;;;;;5061885;28;20130;-82
2023/09/12 04:19:40;;;;;;;12.65;5.45;;;;;;;;;;5084100;28;20464;-80
2023/09/12 04:22:06;;;;;;;9.10;5.25;;;;;;;;;;5084666;28;20034;-83
2023/09/12 04:24:32;;;;;;;7.97;5.68;;;;;;;;;;5066055;28;20417;-79
2023/09/12 04:27:00;;;;;;;9.57;6.03;;;;;;;;;;5067759;28;20035;-82
2023/09/12 04:29:27;;;;;;;8.00;5.53;;;;;;;;;;5083033;28;20027;-79
2023/09/12 04:31:58;;;;;;;8.68;5.82;;;;;;;;;;5068567;28;20088;-80
2023/09/12 04:34:27;;;;;;;8.35;5.88;;;;;;;;;;5085103;28;20039;-82
2023/09/12 04:36:53;;;;;;;8.90;6.03;;;;;;;;;;5083309;28;20349;-81
2023/09/12 04:39:22;;;;;;;9.15;5.38;;;;;;;;;;5082290;28;20028;-82
2023/09/12 04:41:48;;;;;;;8.85;5.75;;;;;;;;;;5066132;28;20879;-80
2023/09/12 04:44:14;;;;;;;12.43;5.88;;;;;;;;;;5066285;28;20042;-81
2023/09/12 04:46:40;;;;;;;8.95;6.15;;;;;;;;;;5064935;28;20515;-80
2023/09/12 04:49:08;;;;;;;12.20;5.63;;;;;;;;;;5081576;28;20119;-81
2023/09/12 04:51:34;;;;;;;9.23;6.03;;;;;;;;;;5084034;28;21600;-80
2023/09/12 04:54:03;;;;;;;10.07;5.70;;;;;;;;;;5083322;28;20028;-78
2023/09/12 04:56:29;;;;;;;7.35;5.68;;;;;;;;;;5065030;28;20610;-81
2023/09/12 04:58:55;;;;;;;9.20;6.07;;;;;;;;;;5061146;28;20043;-80
2023/09/12 05:01:21;;;;;;;8.20;5.88;;;;;;;;;;5066148;28;20040;-78
2023/09/12 05:03:47;;;;;;;11.82;6.80;;;;;;;;;;5082179;28;20032;-81
2023/09/12 05:06:13;;;;;;;9.50;5.22;;;;;;;;;;5063911;28;20569;-80
2023/09/12 05:08:39;;;;;;;9.05;6.05;;;;;;;;;;5066009;28;20039;-80
2023/09/12 05:11:05;;;;;;;15.00;7.10;;;;;;;;;;5064557;28;20119;-81
2023/09/12 05:13:34;;;;;;;11.80;6.30;;;;;;;;;;5065562;28;20034;-79
2023/09/12 05:16:00;;;;;;;7.82;5.43;;;;;;;;;;5077520;28;20154;-81
2023/09/12 05:18:26;;;;;;;11.32;6.40;;;;;;;;;;5064411;28;20123;-81
2023/09/12 05:20:54;;;;;;;10.20;5.38;;;;;;;;;;5064050;28;20036;-78
2023/09/12 05:23:20;;;;;;;9.40;6.13;;;;;;;;;;5080072;28;20027;-79
2023/09/12 05:25:46;;;;;;;8.55;5.70;;;;;;;;;;5068783;28;20032;-78
2023/09/12 05:28:15;;;;;;;14.57;6.15;;;;;;;;;;5063085;28;20081;-80
2023/09/12 05:30:41;;;;;;;9.20;6.60;;;;;;;;;;5065691;28;20360;-81
2023/09/12 05:33:07;;;;;;;8.15;6.13;;;;;;;;;;5058853;28;20032;-81
2023/09/12 05:35:33;;;;;;;8.43;6.18;;;;;;;;;;5082439;28;20383;-81
2023/09/12 05:38:02;;;;;;;9.38;5.47;;;;;;;;;;5066776;28;20042;-82
2023/09/12 05:40:28;;;;;;;9.38;5.60;;;;;;;;;;5062255;28;20040;-82
2023/09/12 05:42:54;;;;;;;10.10;5.70;;;;;;;;;;5066079;28;20047;-81
2023/09/12 05:45:19;;;;;;;9.48;5.97;;;;;;;;;;5082043;28;20065;-80
2023/09/12 05:47:46;;;;;;;9.52;6.03;;;;;;;;;;5081911;28;20024;-84
2023/09/12 05:50:12;;;;;;;10.63;5.82;;;;;;;;;;5066998;28;20021;-80
2023/09/12 05:52:38;;;;;;;9.57;6.43;;;;;;;;;;5083021;28;20028;-82
2023/09/12 05:55:04;;;;;;;12.60;6.32;;;;;;;;;;5068065;28;20036;-83
2023/09/12 05:57:33;;;;;;;8.73;5.43;;;;;;;;;;5081144;28;20356;-79
2023/09/12 06:00:04;;;;;;;9.07;5.80;;;;;;;;;;5080426;28;20162;-83
2023/09/12 06:02:30;;;;;;;9.63;6.10;;;;;;;;;;5065944;28;20089;-81
2023/09/12 06:04:56;;;;;;;9.68;6.03;;;;;;;;;;5064722;28;20030;-81
2023/09/12 06:07:25;;;;;;;15.07;8.20;;;;;;;;;;5081304;28;20024;-82
2023/09/12 06:09:51;;;;;;;11.35;8.00;;;;;;;;;;5064379;28;20097;-81
2023/09/12 06:12:19;;;;;;;15.82;10.43;;;;;;;;;;5082718;28;20074;-82
2023/09/12 06:14:45;;;;;;;18.88;12.10;;;;;;;;;;5063083;28;20024;-82
2023/09/12 06:17:13;;;;;;;24.30;12.65;;;;;;;;;;5081391;28;20032;-80
2023/09/12 06:19:39;;;;;;;28.75;17.80;;;;;;;;;;5063420;28;20086;-81
2023/09/12 06:22:05;;;;;;;25.33;16.67;;;;;;;;;;5081745;28;20028;-80
2023/09/12 06:24:31;;;;;;;31.20;18.67;;;;;;;;;;5081825;28;20607;-78
2023/09/12 06:26:59;;;;;;;29.83;18.90;;;;;;;;;;5081380;28;20036;-79
2023/09/12 06:29:25;;;;;;;27.95;17.58;;;;;;;;;;5059592;28;20505;-78
2023/09/12 06:31:51;;;;;;;28.17;19.05;;;;;;;;;;5063715;28;20047;-78
2023/09/12 06:34:17;;;;;;;29.80;19.98;;;;;;;;;;5066674;28;20492;-82
2023/09/12 06:36:44;;;;;;;32.03;18.48;;;;;;;;;;5085338;28;20133;-81
2023/09/12 06:39:13;;;;;;;30.45;18.17;;;;;;;;;;5067057;28;20110;-78
2023/09/12 06:41:41;;;;;;;30.52;17.73;;;;;;;;;;5067612;28;20024;-81
2023/09/12 06:44:09;;;;;;;29.60;18.58;;;;;;;;;;5085304;28;20039;-80
2023/09/12 06:46:38;;;;;;;26.27;16.40;;;;;;;;;;5068311;28;20052;-79
2023/09/12 06:49:04;;;;;;;24.77;15.48;;;;;;;;;;5085047;28;20028;-80
2023/09/12 06:51:30;;;;;;;27.02;15.50;;;;;;;;;;5086348;28;20058;-82
2023/09/12 06:53:56;;;;;;;25.38;15.02;;;;;;;;;;5085376;28;20336;-81
2023/09/12 06:56:22;;;;;;;25.17;13.90;;;;;;;;;;5080465;28;20105;-79
2023/09/12 06:58:48;;;;;;;20.52;14.15;;;;;;;;;;5085872;28;20023;-82
2023/09/12 07:01:17;;;;;;;25.45;14.70;;;;;;;;;;5085394;28;20447;-78
2023/09/12 07:03:43;;;;;;;18.80;13.27;;;;;;;;;;5062513;28;20032;-82
2023/09/12 07:06:11;;;;;;;23.08;13.52;;;;;;;;;;5083789;28;20024;-79
2023/09/12 07:08:37;;;;;;;18.73;12.27;;;;;;;;;;5083993;28;20034;-82
2023/09/12 07:11:08;;;;;;;20.80;12.85;;;;;;;;;;5066733;28;20028;-81
2023/09/12 07:13:34;;;;;;;16.02;10.82;;;;;;;;;;5067750;28;20028;-83
2023/09/12 07:16:03;;;;;;;18.50;11.88;;;;;;;;;;5071406;28;20076;-82
2023/09/12 07:18:30;;;;;;;13.88;9.82;;;;;;;;;;5086315;28;20337;-80
2023/09/12 07:21:00;;;;;;;14.05;9.63;;;;;;;;;;5082305;28;20118;-80
2023/09/12 07:23:25;;;;;;;14.63;9.75;;;;;;;;;;5069102;28;20035;-83
2023/09/12 07:25:52;;;;;;;16.85;9.63;;;;;;;;;;5090741;28;20048;-83
2023/09/12 07:28:19;;;;;;;16.05;10.10;;;;;;;;;;5068524;28;20032;-81
2023/09/12 07:30:48;;;;;;;14.88;9.18;;;;;;;;;;5068052;28;20024;-81
2023/09/12 07:33:14;;;;;;;14.18;9.30;;;;;;;;;;5085728;28;20039;-83
2023/09/12 07:35:40;;;;;;;14.80;9.02;;;;;;;;;;5085620;28;20039;-82
2023/09/12 07:38:06;;;;;;;11.18;8.80;;;;;;;;;;5084738;28;20043;-83
2023/09/12 07:40:32;;;;;;;14.77;8.73;;;;;;;;;;5085793;28;20055;-82
2023/09/12 07:43:00;;;;;;;12.43;8.23;;;;;;;;;;5067210;28;20024;-80
2023/09/12 07:45:27;;;;;;;12.10;8.05;;;;;;;;;;5080297;28;20032;-82
2023/09/12 07:47:53;;;;;;;10.52;8.27;;;;;;;;;;5066549;28;20432;-82
2023/09/12 07:50:19;;;;;;;11.85;8.15;;;;;;;;;;5088230;28;20059;-78
2023/09/12 07:52:45;;;;;;;12.15;7.65;;;;;;;;;;5086309;28;20028;-84
2023/09/12 07:55:11;;;;;;;12.52;8.20;;;;;;;;;;5065816;28;20057;-81
2023/09/12 07:57:37;;;;;;;10.20;7.75;;;;;;;;;;5070164;28;20063;-82
2023/09/12 08:00:10;;;;;;;14.07;8.60;;;;;;;;;;5084941;28;20433;-84
2023/09/12 08:02:36;;;;;;;11.27;6.93;;;;;;;;;;5069604;28;20110;-83
2023/09/12 08:05:02;;;;;;;12.35;7.53;;;;;;;;;;5085306;28;20111;-81
2023/09/12 08:07:31;;;;;;;11.38;7.57;;;;;;;;;;5065914;28;20435;-83
2023/09/12 08:09:58;;;;;;;11.23;7.72;;;;;;;;;;5066809;28;20035;-82
2023/09/12 08:12:27;;;;;;;13.10;8.20;;;;;;;;;;5065758;28;20034;-83
2023/09/12 08:14:54;;;;;;;9.98;7.65;;;;;;;;;;5065469;28;20039;-81
2023/09/12 08:17:20;;;;;;;11.52;7.03;;;;;;;;;;5068663;28;20436;-80
2023/09/12 08:19:46;;;;;;;11.82;8.50;;;;;;;;;;5088377;28;20115;-81
2023/09/12 08:22:15;;;;;;;8.52;7.30;;;;;;;;;;5087890;28;20031;-80
2023/09/12 08:24:43;;;;;;;10.60;7.07;;;;;;;;;;5088279;28;20053;-81
2023/09/12 08:27:09;;;;;;;12.68;7.30;;;;;;;;;;5087394;28;20440;-79
2023/09/12 08:29:36;;;;;;;11.98;7.13;;;;;;;;;;5069327;28;20093;-81
2023/09/12 08:32:02;;;;;;;11.63;7.20;;;;;;;;;;5070077;28;20031;-83
2023/09/12 08:34:31;;;;;;;12.65;6.53;;;;;;;;;;5070209;28;20027;-81
2023/09/12 08:36:57;;;;;;;9.60;6.97;;;;;;;;;;5088583;28;20032;-80
2023/09/12 08:39:24;;;;;;;10.18;6.20;;;;;;;;;;5068752;28;20043;-81
2023/09/12 08:41:51;;;;;;;8.80;6.68;;;;;;;;;;5068330;28;20089;-81
2023/09/12 08:44:18;;;;;;;12.50;6.72;;;;;;;;;;5069883;28;20048;-81
2023/09/12 08:46:45;;;;;;;8.98;7.00;;;;;;;;;;5069083;28;20170;-81
2023/09/12 08:49:12;;;;;;;11.25;6.75;;;;;;;;;;5087967;28;20094;-80
2023/09/12 08:51:39;;;;;;;11.43;7.03;;;;;;;;;;5068450;28;20024;-80
2023/09/12 08:54:07;;;;;;;13.75;6.32;;;;;;;;;;5067929;28;20021;-81
2023/09/12 08:56:35;;;;;;;7.30;6.32;;;;;;;;;;5085320;28;20074;-80
2023/09/12 08:59:01;;;;;;;9.93;6.25;;;;;;;;;;5070409;28;20097;-81
2023/09/12 09:01:28;;;;;;;7.30;6.22;;;;;;;;;;5068769;28;20545;-79
2023/09/12 09:03:55;;;;;;;6.95;5.65;;;;;;;;;;5086928;28;20040;-81
2023/09/12 09:06:22;;;;;;;9.68;6.43;;;;;;;;;;5069481;28;20028;-81
2023/09/12 09:08:48;;;;;;;9.55;5.60;;;;;;;;;;5068413;28;20046;-81
2023/09/12 09:11:14;;;;;;;8.13;4.90;;;;;;;;;;5086471;28;20028;-81
2023/09/12 09:13:41;;;;;;;7.40;5.47;;;;;;;;;;5065640;28;20035;-82
2023/09/12 09:16:12;;;;;;;7.35;4.97;;;;;;;;;;5083992;28;20038;-81
2023/09/12 09:18:54;;;;;;;7.70;4.82;;;;;;;;;;5065257;28;20059;-79
2023/09/12 09:21:25;;;;;;;8.35;4.55;;;;;;;;;;5082087;28;20028;-79
2023/09/12 09:23:52;;;;;;;7.65;4.80;;;;;;;;;;5065966;28;20051;-84
2023/09/12 09:26:18;;;;;;;7.82;4.95;;;;;;;;;;5061572;28;20020;-82
2023/09/12 09:29:01;;;;;;;5.95;4.80;;;;;;;;;;5082100;28;20028;-81
2023/09/12 09:31:28;;;;;;;14.07;5.55;;;;;;;;;;5082776;28;20074;-81
2023/09/12 09:33:54;;;;;;;9.75;5.85;;;;;;;;;;5083262;28;20033;-81
2023/09/12 09:36:20;;;;;;;11.07;6.15;;;;;;;;;;5063216;28;20032;-84
2023/09/12 09:38:46;;;;;;;11.77;6.68;;;;;;;;;;5064718;28;20096;-84
2023/09/12 09:41:12;;;;;;;11.00;7.15;;;;;;;;;;5060632;28;20379;-82
2023/09/12 09:43:38;;;;;;;12.02;5.95;;;;;;;;;;5082467;28;20040;-80
2023/09/12 09:46:04;;;;;;;6.80;5.85;;;;;;;;;;5080636;28;20110;-78
2023/09/12 09:48:31;;;;;;;12.60;5.22;;;;;;;;;;5082693;28;20472;-78
2023/09/12 09:51:03;;;;;;;6.18;4.80;;;;;;;;;;5083201;28;20024;-78
2023/09/12 09:53:29;;;;;;;;;;;;;;;;;;5064900;28;20028;-81
2023/09/12 09:56:12;;;;;;;7.63;4.90;;;;;;;;;;5060780;28;19924;-80
2023/09/12 09:58:57;;;;;;;8.70;3.92;;;;;;;;;;5068314;28;20488;-81
2023/09/12 10:01:32;;;;;;;9.30;4.90;;;;;;;;;;5083606;28;20624;-80
2023/09/12 10:03:58;;;;;;;7.40;4.47;;;;;;;;;;5065717;28;20119;-77
2023/09/12 10:06:25;;;;;;;6.88;3.75;;;;;;;;;;5067611;28;20543;-80
2023/09/12 10:08:52;;;;;;;5.22;2.97;;;;;;;;;;5080681;28;20028;-79
2023/09/12 10:11:19;;;;;;;4.88;3.58;;;;;;;;;;5068790;28;20105;-80
2023/09/12 10:13:47;;;;;;;5.50;3.30;;;;;;;;;;5084761;28;20081;-81
2023/09/12 10:16:18;;;;;;;3.20;2.65;;;;;;;;;;5065483;28;20808;-77
2023/09/12 10:18:55;;;;;;;4.30;3.53;;;;;;;;;;5089876;28;20040;-80
2023/09/12 10:21:24;;;;;;;4.93;3.40;;;;;;;;;;5087511;28;20047;-80
2023/09/12 10:23:50;;;;;;;6.80;3.97;;;;;;;;;;5066668;28;20036;-78
2023/09/12 10:26:17;;;;;;;6.93;2.80;;;;;;;;;;5068906;28;20032;-81
2023/09/12 10:28:43;;;;;;;5.07;2.80;;;;;;;;;;5064307;28;20024;-77
2023/09/12 10:31:14;;;;;;;4.40;2.65;;;;;;;;;;5066927;28;20028;-79
2023/09/12 10:33:40;;;;;;;9.80;4.03;;;;;;;;;;5068063;28;20447;-80
2023/09/12 10:36:08;;;;;;;10.45;4.00;;;;;;;;;;5071928;28;20040;-79
2023/09/12 10:38:40;;;;;;;4.00;3.10;;;;;;;;;;5066627;28;20038;-78
2023/09/12 10:41:10;;;;;;;9.57;3.95;;;;;;;;;;5089130;28;20072;-81
2023/09/12 10:43:36;;;;;;;4.85;3.90;;;;;;;;;;5068889;28;20050;-79
2023/09/12 10:46:03;;;;;;;6.00;3.35;;;;;;;;;;5066975;28;20035;-79
2023/09/12 10:48:32;;;;;;;5.68;4.10;;;;;;;;;;5069003;28;20024;-80
2023/09/12 10:50:59;;;;;;;5.10;3.35;;;;;;;;;;5069259;28;20020;-79
2023/09/12 10:53:28;;;;;;;6.00;3.03;;;;;;;;;;5068303;28;20052;-79
2023/09/12 10:56:01;;;;;;;5.18;2.50;;;;;;;;;;5064080;28;20032;-77
2023/09/12 10:58:30;;;;;;;13.07;3.20;;;;;;;;;;5085627;28;20032;-79
2023/09/12 11:01:15;;;;;;;5.53;2.97;;;;;;;;;;5067572;28;20032;-79
2023/09/12 11:03:43;;;;;;;5.35;3.40;;;;;;;;;;5065423;28;20040;-78
2023/09/12 11:06:21;;;;;;;5.10;3.30;;;;;;;;;;5068691;28;20360;-79
2023/09/12 11:09:07;;;;;;;7.25;3.03;;;;;;;;;;5085682;28;20028;-80
2023/09/12 11:11:35;;;;;;;6.22;2.38;;;;;;;;;;5066246;28;20043;-79
2023/09/12 11:14:04;;;;;;;4.50;3.30;;;;;;;;;;5086875;28;20081;-78
2023/09/12 11:16:34;;;;;;;9.18;3.13;;;;;;;;;;5087268;28;20075;-79
2023/09/12 11:19:12;;;;;;;5.57;3.33;;;;;;;;;;5087350;28;20031;-79
2023/09/12 11:21:38;;;;;;;6.40;4.65;;;;;;;;;;5087862;28;20024;-79
2023/09/12 11:24:04;;;;;;;18.48;4.70;;;;;;;;;;5083860;28;20036;-78
2023/09/12 11:26:33;;;;;;;5.90;4.68;;;;;;;;;;5085597;28;20036;-79
2023/09/12 11:29:11;;;;;;;8.45;4.22;;;;;;;;;;5086271;28;20077;-78
2023/09/12 11:31:41;;;;;;;6.22;3.72;;;;;;;;;;5081398;28;20036;-78
2023/09/12 11:34:09;;;;;;;8.27;4.50;;;;;;;;;;5089655;28;20016;-78
2023/09/12 11:36:38;;;;;;;8.63;4.50;;;;;;;;;;5084612;28;20032;-79
2023/09/12 11:39:23;;;;;;;7.38;4.47;;;;;;;;;;5063729;28;20117;-78
2023/09/12 11:41:52;;;;;;;6.80;4.50;;;;;;;;;;5066820;28;20028;-78
2023/09/12 11:44:20;;;;;;;6.72;3.97;;;;;;;;;;5084679;28;20082;-79
2023/09/12 11:46:49;;;;;;;7.53;4.70;;;;;;;;;;5066358;28;20032;-79
2023/09/12 11:49:18;;;;;;;6.55;3.70;;;;;;;;;;5083129;28;20077;-78
2023/09/12 11:51:51;;;;;;;7.82;4.72;;;;;;;;;;5083409;28;20119;-78
2023/09/12 11:54:35;;;;;;;7.32;4.43;;;;;;;;;;5084180;28;20032;-80
2023/09/12 11:57:02;;;;;;;6.68;4.05;;;;;;;;;;5083658;28;20032;-78
2023/09/12 11:59:28;;;;;;;7.70;4.60;;;;;;;;;;5082185;28;20032;-79
2023/09/12 12:01:54;;;;;;;6.10;4.57;;;;;;;;;;5083154;28;20040;-78
2023/09/12 12:04:22;;;;;;;10.25;5.47;;;;;;;;;;5084064;28;20046;-78
2023/09/12 12:06:48;;;;;;;6.25;4.28;;;;;;;;;;5083594;28;20448;-77
2023/09/12 12:09:16;;;;;;;9.57;4.43;;;;;;;;;;5066760;28;20125;-79
2023/09/12 12:11:42;;;;;;;8.05;4.22;;;;;;;;;;5083510;28;20024;-79
2023/09/12 12:14:13;;;;;;;22.73;4.43;;;;;;;;;;5066372;28;20089;-79
2023/09/12 12:16:39;;;;;;;5.20;3.97;;;;;;;;;;5082428;28;20885;-79
2023/09/12 12:19:05;;;;;;;4.85;4.30;;;;;;;;;;5066511;28;20479;-77
2023/09/12 12:21:34;;;;;;;6.65;4.38;;;;;;;;;;5066490;28;20523;-79
2023/09/12 12:24:04;;;;;;;4.95;3.95;;;;;;;;;;5082992;28;20044;-77
2023/09/12 12:26:33;;;;;;;5.20;3.47;;;;;;;;;;5083527;28;20119;-78
2023/09/12 12:29:00;;;;;;;7.22;3.95;;;;;;;;;;5065157;28;20024;-79
2023/09/12 12:31:26;;;;;;;6.63;4.20;;;;;;;;;;5082415;28;20027;-79
2023/09/12 12:33:55;;;;;;;12.73;3.85;;;;;;;;;;5084292;28;20012;-77
2023/09/12 12:36:24;;;;;;;7.57;3.60;;;;;;;;;;5064408;28;20028;-78
2023/09/12 12:38:51;;;;;;;9.13;4.15;;;;;;;;;;5064027;28;20043;-79
2023/09/12 12:41:17;;;;;;;5.25;3.38;;;;;;;;;;5083930;28;20032;-77
2023/09/12 12:43:43;;;;;;;4.18;3.60;;;;;;;;;;5063954;28;20047;-79
2023/09/12 12:46:13;;;;;;;25.48;6.15;;;;;;;;;;5069178;28;20035;-80
2023/09/12 12:48:43;;;;;;;4.78;3.45;;;;;;;;;;5061992;28;20105;-79
2023/09/12 12:51:16;;;;;;;4.82;3.75;;;;;;;;;;5064071;28;20016;-79
2023/09/12 12:53:43;;;;;;;5.20;3.58;;;;;;;;;;5064307;28;20115;-78
2023/09/12 12:56:09;;;;;;;8.20;4.03;;;;;;;;;;5064735;28;20032;-79
2023/09/12 12:58:36;;;;;;;7.13;3.72;;;;;;;;;;5080497;28;20034;-78
2023/09/12 13:01:04;;;;;;;7.60;4.30;;;;;;;;;;5064708;28;20502;-79
2023/09/12 13:03:31;;;;;;;5.35;3.97;;;;;;;;;;5082353;28;20603;-79
2023/09/12 13:05:57;;;;;;;6.45;3.72;;;;;;;;;;5081635;28;20028;-77
2023/09/12 13:08:22;;;;;;;6.25;3.58;;;;;;;;;;5065047;28;20047;-79
2023/09/12 13:10:48;;;;;;;4.15;2.88;;;;;;;;;;5059689;28;20432;-79
2023/09/12 13:13:14;;;;;;;6.97;3.65;;;;;;;;;;5060373;28;20031;-78
2023/09/12 13:15:43;;;;;;;5.65;3.13;;;;;;;;;;5063676;28;20036;-79
2023/09/12 13:18:09;;;;;;;6.32;3.38;;;;;;;;;;5083251;28;20020;-79
2023/09/12 13:20:35;;;;;;;5.05;3.67;;;;;;;;;;5082285;28;20055;-78
2023/09/12 13:23:01;;;;;;;6.93;2.83;;;;;;;;;;5083156;28;20039;-78
2023/09/12 13:25:29;;;;;;;4.57;3.13;;;;;;;;;;5063084;28;20479;-78
2023/09/12 13:27:55;;;;;;;5.05;3.53;;;;;;;;;;5083563;28;20133;-79
2023/09/12 13:30:21;;;;;;;6.95;3.30;;;;;;;;;;5082407;28;20493;-77
2023/09/12 13:32:47;;;;;;;6.18;2.85;;;;;;;;;;5063401;28;20030;-78
2023/09/12 13:35:13;;;;;;;8.88;3.42;;;;;;;;;;5059558;28;20255;-80
2023/09/12 13:37:39;;;;;;;21.13;4.15;;;;;;;;;;5064226;28;20028;-78
2023/09/12 13:40:08;;;;;;;6.00;3.03;;;;;;;;;;5082884;28;20062;-79
2023/09/12 13:42:34;;;;;;;8.40;3.53;;;;;;;;;;5060980;28;20142;-79
2023/09/12 13:45:00;;;;;;;5.10;3.00;;;;;;;;;;5065590;28;20114;-78
2023/09/12 13:47:28;;;;;;;6.95;3.03;;;;;;;;;;5086491;28;20085;-79
2023/09/12 13:49:55;;;;;;;6.53;3.08;;;;;;;;;;5087906;28;20072;-79
2023/09/12 13:52:21;;;;;;;3.90;2.88;;;;;;;;;;5087500;28;20090;-79
2023/09/12 13:54:47;;;;;;;3.58;2.70;;;;;;;;;;5066354;28;20023;-80
2023/09/12 13:57:13;;;;;;;4.85;2.60;;;;;;;;;;5086634;28;20077;-78
2023/09/12 13:59:41;;;;;;;4.35;3.00;;;;;;;;;;5085694;28;20040;-79
2023/09/12 14:02:07;;;;;;;4.68;2.20;;;;;;;;;;5067581;28;20108;-78
2023/09/12 14:04:34;;;;;;;4.15;2.47;;;;;;;;;;5067513;28;21685;-79
2023/09/12 14:07:00;;;;;;;4.47;2.63;;;;;;;;;;5063393;28;20069;-79
2023/09/12 14:09:31;;;;;;;3.65;2.45;;;;;;;;;;5086647;28;20444;-77
2023/09/12 14:11:59;;;;;;;3.40;3.00;;;;;;;;;;5086059;28;20036;-79
2023/09/12 14:14:25;;;;;;;4.72;2.80;;;;;;;;;;5084700;28;20020;-78
2023/09/12 14:16:51;;;;;;;4.43;2.53;;;;;;;;;;5069063;28;20096;-79
2023/09/12 14:19:17;;;;;;;4.20;2.70;;;;;;;;;;5068234;28;20071;-78
2023/09/12 14:21:46;;;;;;;5.47;2.67;;;;;;;;;;5065898;28;21042;-77
2023/09/12 14:24:12;;;;;;;4.60;3.58;;;;;;;;;;5086037;28;20038;-79
2023/09/12 14:26:40;;;;;;;6.15;2.67;;;;;;;;;;5064106;28;20028;-79
2023/09/12 14:29:07;;;;;;;3.67;2.75;;;;;;;;;;5087297;28;20051;-79
2023/09/12 14:31:33;;;;;;;3.33;2.13;;;;;;;;;;5062841;28;20351;-78
2023/09/12 14:34:01;;;;;;;6.65;3.17;;;;;;;;;;5067744;28;20032;-79